DLH4UY EDDM-EDDC
Flight info
| Callsign | DLH4UY |
|---|---|
| Flight time | 0h 36m |
| Altitude | 27000 |
| Route | AKINI1Q AKINI Y104 MAMOR L132 AGNAV DCT SUPIL DCT KILNU L132 ABKIS Q240 DRN |
| Aircraft | A20N/M-SDE2E3FGHIRWXY/LB1 |
Departure
| Time | 2026-04-30 19:56 |
|---|---|
| Airport | Munich Airport (EDDM) |
Arrival
| Time | 2026-04-30 20:32 |
|---|---|
| Airport | Dresden Airport (EDDC) |
| Time | Latitude | Longitude | Altitude | Speed | Heading |
|---|---|---|---|---|---|
| 2026-04-30 19:39 | 48.35713 | 11.79268 | 1488 ft | 0 kts | 263° |
| 2026-04-30 19:45 | 48.35714 | 11.79279 | 1475 ft | 3 kts | 263° |
| 2026-04-30 19:45 | 48.35716 | 11.79307 | 1484 ft | 3 kts | 263° |
| 2026-04-30 19:46 | 48.35718 | 11.79335 | 1476 ft | 3 kts | 263° |
| 2026-04-30 19:46 | 48.35721 | 11.79362 | 1477 ft | 3 kts | 263° |
| 2026-04-30 19:46 | 48.35723 | 11.79388 | 1482 ft | 2 kts | 293° |
| 2026-04-30 19:46 | 48.35714 | 11.79409 | 1473 ft | 2 kts | 343° |
| 2026-04-30 19:47 | 48.35710 | 11.79411 | 1473 ft | 0 kts | 354° |
| 2026-04-30 19:50 | 48.35712 | 11.79411 | 1473 ft | 3 kts | 353° |
| 2026-04-30 19:50 | 48.35764 | 11.79401 | 1488 ft | 8 kts | 352° |
| 2026-04-30 19:51 | 48.35818 | 11.79390 | 1487 ft | 8 kts | 353° |
| 2026-04-30 19:51 | 48.35872 | 11.79380 | 1486 ft | 8 kts | 353° |
| 2026-04-30 19:51 | 48.35922 | 11.79355 | 1479 ft | 7 kts | 339° |
| 2026-04-30 19:51 | 48.35926 | 11.79354 | 1480 ft | 0 kts | 340° |
| 2026-04-30 19:52 | 48.35935 | 11.79349 | 1485 ft | 6 kts | 342° |
| 2026-04-30 19:52 | 48.35979 | 11.79338 | 1485 ft | 8 kts | 353° |
| 2026-04-30 19:52 | 48.36074 | 11.79320 | 1488 ft | 16 kts | 353° |
| 2026-04-30 19:52 | 48.36178 | 11.79289 | 1477 ft | 14 kts | 324° |
| 2026-04-30 19:53 | 48.36189 | 11.79147 | 1488 ft | 15 kts | 263° |
| 2026-04-30 19:53 | 48.36178 | 11.78994 | 1474 ft | 16 kts | 263° |
| 2026-04-30 19:53 | 48.36159 | 11.78766 | 1479 ft | 25 kts | 263° |
| 2026-04-30 19:53 | 48.36139 | 11.78502 | 1479 ft | 26 kts | 264° |
| 2026-04-30 19:54 | 48.36118 | 11.78223 | 1486 ft | 30 kts | 264° |
| 2026-04-30 19:54 | 48.36090 | 11.77870 | 1478 ft | 30 kts | 264° |
| 2026-04-30 19:54 | 48.36112 | 11.77701 | 1480 ft | 14 kts | 340° |
| 2026-04-30 19:54 | 48.36200 | 11.77813 | 1483 ft | 28 kts | 53° |
| 2026-04-30 19:55 | 48.36325 | 11.78068 | 1488 ft | 30 kts | 54° |
| 2026-04-30 19:55 | 48.36399 | 11.78363 | 1488 ft | 36 kts | 84° |
| 2026-04-30 19:55 | 48.36454 | 11.79085 | 1475 ft | 103 kts | 84° |
| 2026-04-30 19:55 | 48.36560 | 11.80469 | 1511 ft | 157 kts | 83° |
| 2026-04-30 19:56 | 48.36687 | 11.82081 | 2164 ft | 154 kts | 84° |
| 2026-04-30 19:56 | 48.36789 | 11.83670 | 2942 ft | 154 kts | 86° |
| 2026-04-30 19:56 | 48.36882 | 11.85381 | 3490 ft | 173 kts | 84° |
| 2026-04-30 19:56 | 48.37234 | 11.87201 | 4048 ft | 194 kts | 64° |
| 2026-04-30 19:57 | 48.38135 | 11.88777 | 4951 ft | 204 kts | 41° |
| 2026-04-30 19:57 | 48.39347 | 11.89947 | 5833 ft | 214 kts | 36° |
| 2026-04-30 19:57 | 48.40673 | 11.91168 | 6450 ft | 233 kts | 33° |
| 2026-04-30 19:57 | 48.42131 | 11.92444 | 7067 ft | 252 kts | 32° |
| 2026-04-30 19:58 | 48.43701 | 11.93779 | 7625 ft | 266 kts | 34° |
| 2026-04-30 19:58 | 48.44973 | 11.95772 | 7576 ft | 265 kts | 61° |
| 2026-04-30 19:58 | 48.45804 | 11.98242 | 7395 ft | 264 kts | 63° |
| 2026-04-30 19:58 | 48.46839 | 12.00515 | 7368 ft | 265 kts | 49° |
| 2026-04-30 19:59 | 48.48266 | 12.02274 | 7373 ft | 267 kts | 32° |
| 2026-04-30 19:59 | 48.49986 | 12.03359 | 7368 ft | 270 kts | 17° |
| 2026-04-30 19:59 | 48.53762 | 12.03808 | 7366 ft | 274 kts | 3° |
| 2026-04-30 20:00 | 48.55676 | 12.03807 | 7656 ft | 277 kts | 2° |
| 2026-04-30 20:00 | 48.57610 | 12.03801 | 8612 ft | 277 kts | 3° |
| 2026-04-30 20:00 | 48.59534 | 12.03798 | 9750 ft | 276 kts | 3° |
| 2026-04-30 20:00 | 48.61455 | 12.03850 | 10769 ft | 276 kts | 8° |
| 2026-04-30 20:01 | 48.65081 | 12.05586 | 12706 ft | 275 kts | 27° |
| 2026-04-30 20:01 | 48.66824 | 12.06783 | 13710 ft | 276 kts | 27° |
| 2026-04-30 20:01 | 48.68551 | 12.07982 | 14629 ft | 278 kts | 27° |
| 2026-04-30 20:02 | 48.72100 | 12.10434 | 16364 ft | 283 kts | 27° |
| 2026-04-30 20:02 | 48.73900 | 12.11673 | 17209 ft | 286 kts | 27° |
| 2026-04-30 20:03 | 48.77600 | 12.14283 | 18419 ft | 308 kts | 27° |
| 2026-04-30 20:03 | 48.79591 | 12.15722 | 18761 ft | 326 kts | 28° |
| 2026-04-30 20:03 | 48.81682 | 12.17237 | 19147 ft | 339 kts | 27° |
| 2026-04-30 20:03 | 48.83832 | 12.18794 | 19741 ft | 345 kts | 27° |
| 2026-04-30 20:04 | 48.86011 | 12.20368 | 20439 ft | 348 kts | 27° |
| 2026-04-30 20:04 | 48.88208 | 12.21951 | 21162 ft | 351 kts | 27° |
| 2026-04-30 20:04 | 48.90421 | 12.23526 | 21904 ft | 353 kts | 27° |
| 2026-04-30 20:05 | 48.94907 | 12.26681 | 23290 ft | 358 kts | 27° |
| 2026-04-30 20:05 | 48.97179 | 12.28275 | 23956 ft | 360 kts | 27° |
| 2026-04-30 20:05 | 49.01761 | 12.31499 | 25038 ft | 365 kts | 27° |
| 2026-04-30 20:06 | 49.04070 | 12.33128 | 25571 ft | 366 kts | 27° |
| 2026-04-30 20:06 | 49.06388 | 12.34767 | 26083 ft | 368 kts | 27° |
| 2026-04-30 20:06 | 49.08723 | 12.36419 | 26598 ft | 370 kts | 27° |
| 2026-04-30 20:06 | 49.11062 | 12.38078 | 27096 ft | 372 kts | 27° |
| 2026-04-30 20:07 | 49.13418 | 12.39750 | 27366 ft | 374 kts | 27° |
| 2026-04-30 20:07 | 49.15776 | 12.41426 | 27402 ft | 374 kts | 27° |
| 2026-04-30 20:07 | 49.20497 | 12.44784 | 27401 ft | 375 kts | 27° |
| 2026-04-30 20:08 | 49.22860 | 12.46467 | 27407 ft | 377 kts | 27° |
| 2026-04-30 20:08 | 49.25280 | 12.48197 | 27412 ft | 391 kts | 27° |
| 2026-04-30 20:08 | 49.26932 | 12.49381 | 27411 ft | 400 kts | 27° |
| 2026-04-30 20:08 | 49.29489 | 12.51214 | 27407 ft | 411 kts | 27° |
| 2026-04-30 20:09 | 49.32109 | 12.53042 | 27409 ft | 416 kts | 24° |
| 2026-04-30 20:09 | 49.34876 | 12.54376 | 27413 ft | 419 kts | 18° |
| 2026-04-30 20:09 | 49.40558 | 12.56409 | 27417 ft | 420 kts | 15° |
| 2026-04-30 20:10 | 49.46289 | 12.58197 | 27419 ft | 420 kts | 15° |
| 2026-04-30 20:10 | 49.49155 | 12.59075 | 27419 ft | 420 kts | 15° |
| 2026-04-30 20:10 | 49.52023 | 12.59958 | 27419 ft | 420 kts | 15° |
| 2026-04-30 20:11 | 49.57755 | 12.61707 | 27422 ft | 420 kts | 14° |
| 2026-04-30 20:11 | 49.60644 | 12.62478 | 27423 ft | 421 kts | 13° |
| 2026-04-30 20:11 | 49.63536 | 12.63190 | 27420 ft | 421 kts | 13° |
| 2026-04-30 20:12 | 49.69335 | 12.64552 | 27426 ft | 421 kts | 13° |
| 2026-04-30 20:12 | 49.72231 | 12.65235 | 27427 ft | 421 kts | 13° |
| 2026-04-30 20:12 | 49.75134 | 12.65930 | 27426 ft | 422 kts | 13° |
| 2026-04-30 20:13 | 49.78035 | 12.66633 | 27428 ft | 424 kts | 13° |
| 2026-04-30 20:13 | 49.80951 | 12.67345 | 27430 ft | 424 kts | 13° |
| 2026-04-30 20:13 | 49.83867 | 12.68060 | 27435 ft | 424 kts | 13° |
| 2026-04-30 20:13 | 49.86780 | 12.68776 | 27434 ft | 424 kts | 13° |
| 2026-04-30 20:14 | 49.89691 | 12.69494 | 27431 ft | 424 kts | 13° |
| 2026-04-30 20:14 | 49.92606 | 12.70213 | 27431 ft | 424 kts | 13° |
| 2026-04-30 20:14 | 49.95521 | 12.70933 | 27420 ft | 424 kts | 13° |
| 2026-04-30 20:14 | 49.98432 | 12.71653 | 27432 ft | 424 kts | 13° |
| 2026-04-30 20:15 | 50.01350 | 12.72374 | 27436 ft | 424 kts | 13° |
| 2026-04-30 20:15 | 50.04255 | 12.73094 | 27284 ft | 422 kts | 13° |
| 2026-04-30 20:15 | 50.07120 | 12.73800 | 27022 ft | 410 kts | 13° |
| 2026-04-30 20:15 | 50.09898 | 12.74482 | 26721 ft | 398 kts | 13° |
| 2026-04-30 20:16 | 50.12590 | 12.75146 | 26078 ft | 396 kts | 13° |
| 2026-04-30 20:16 | 50.15345 | 12.75833 | 25417 ft | 395 kts | 13° |
| 2026-04-30 20:16 | 50.18012 | 12.76501 | 24867 ft | 392 kts | 13° |
| 2026-04-30 20:16 | 50.20687 | 12.77171 | 24314 ft | 388 kts | 13° |
| 2026-04-30 20:17 | 50.23350 | 12.77838 | 23639 ft | 387 kts | 13° |
| 2026-04-30 20:17 | 50.25993 | 12.78501 | 22987 ft | 384 kts | 13° |
| 2026-04-30 20:17 | 50.28619 | 12.79159 | 22321 ft | 381 kts | 13° |
| 2026-04-30 20:17 | 50.31201 | 12.79926 | 21830 ft | 372 kts | 18° |
| 2026-04-30 20:18 | 50.33615 | 12.81213 | 21337 ft | 363 kts | 26° |
| 2026-04-30 20:18 | 50.35820 | 12.83045 | 20852 ft | 356 kts | 32° |
| 2026-04-30 20:18 | 50.37899 | 12.85110 | 20343 ft | 351 kts | 35° |
| 2026-04-30 20:18 | 50.39882 | 12.87284 | 19858 ft | 346 kts | 37° |
| 2026-04-30 20:19 | 50.41812 | 12.89505 | 19379 ft | 342 kts | 37° |
| 2026-04-30 20:19 | 50.43707 | 12.91724 | 18911 ft | 338 kts | 38° |
| 2026-04-30 20:19 | 50.45586 | 12.93925 | 18338 ft | 337 kts | 38° |
| 2026-04-30 20:19 | 50.47462 | 12.96110 | 17757 ft | 335 kts | 37° |
| 2026-04-30 20:20 | 50.49334 | 12.98274 | 17188 ft | 333 kts | 37° |
| 2026-04-30 20:20 | 50.51193 | 13.00412 | 16678 ft | 331 kts | 37° |
| 2026-04-30 20:20 | 50.53050 | 13.02541 | 16157 ft | 329 kts | 37° |
| 2026-04-30 20:20 | 50.54895 | 13.04654 | 15678 ft | 328 kts | 37° |
| 2026-04-30 20:21 | 50.56736 | 13.06764 | 15186 ft | 327 kts | 37° |
| 2026-04-30 20:21 | 50.58570 | 13.08869 | 14703 ft | 326 kts | 37° |
| 2026-04-30 20:21 | 50.60398 | 13.10968 | 14222 ft | 325 kts | 37° |
| 2026-04-30 20:21 | 50.62219 | 13.13063 | 13685 ft | 323 kts | 37° |
| 2026-04-30 20:22 | 50.64029 | 13.15145 | 13162 ft | 321 kts | 37° |
| 2026-04-30 20:22 | 50.65825 | 13.17213 | 12659 ft | 318 kts | 37° |
| 2026-04-30 20:22 | 50.67604 | 13.19264 | 12149 ft | 315 kts | 37° |
| 2026-04-30 20:22 | 50.69362 | 13.21294 | 11652 ft | 311 kts | 37° |
| 2026-04-30 20:23 | 50.71083 | 13.23282 | 11141 ft | 301 kts | 37° |
| 2026-04-30 20:23 | 50.72741 | 13.25199 | 10652 ft | 291 kts | 37° |
| 2026-04-30 20:23 | 50.74351 | 13.27061 | 10152 ft | 282 kts | 38° |
| 2026-04-30 20:23 | 50.75914 | 13.28872 | 9620 ft | 275 kts | 38° |
| 2026-04-30 20:24 | 50.77437 | 13.30638 | 9074 ft | 268 kts | 38° |
| 2026-04-30 20:24 | 50.78922 | 13.32363 | 8613 ft | 262 kts | 38° |
| 2026-04-30 20:24 | 50.80388 | 13.34067 | 8413 ft | 262 kts | 38° |
| 2026-04-30 20:24 | 50.81860 | 13.35783 | 8052 ft | 263 kts | 38° |
| 2026-04-30 20:25 | 50.84775 | 13.39178 | 7152 ft | 259 kts | 38° |
| 2026-04-30 20:25 | 50.86226 | 13.40869 | 6712 ft | 259 kts | 38° |
| 2026-04-30 20:26 | 50.89112 | 13.44238 | 5783 ft | 256 kts | 38° |
| 2026-04-30 20:26 | 50.91958 | 13.47570 | 5041 ft | 252 kts | 38° |
| 2026-04-30 20:26 | 50.93333 | 13.49335 | 4994 ft | 251 kts | 41° |
| 2026-04-30 20:27 | 50.95984 | 13.52920 | 4990 ft | 253 kts | 42° |
| 2026-04-30 20:27 | 50.98585 | 13.56409 | 4503 ft | 240 kts | 41° |
| 2026-04-30 20:28 | 51.01048 | 13.59794 | 3784 ft | 222 kts | 41° |
| 2026-04-30 20:28 | 51.03205 | 13.62746 | 3212 ft | 189 kts | 41° |
| 2026-04-30 20:29 | 51.05064 | 13.65296 | 2724 ft | 167 kts | 41° |
| 2026-04-30 20:30 | 51.07365 | 13.68552 | 2082 ft | 135 kts | 40° |
| 2026-04-30 20:30 | 51.09425 | 13.71292 | 1621 ft | 132 kts | 43° |
| 2026-04-30 20:31 | 51.11564 | 13.74228 | 1056 ft | 137 kts | 40° |
| 2026-04-30 20:32 | 51.13493 | 13.76886 | 735 ft | 81 kts | 40° |
| 2026-04-30 20:32 | 51.13893 | 13.77507 | 727 ft | 12 kts | 118° |
| 2026-04-30 20:33 | 51.13849 | 13.77600 | 727 ft | 10 kts | 129° |
| 2026-04-30 20:33 | 51.13731 | 13.77684 | 725 ft | 13 kts | 219° |
| 2026-04-30 20:33 | 51.13620 | 13.77533 | 727 ft | 24 kts | 220° |
| 2026-04-30 20:34 | 51.13379 | 13.77201 | 732 ft | 22 kts | 221° |
| 2026-04-30 20:34 | 51.13169 | 13.76912 | 744 ft | 21 kts | 221° |
| 2026-04-30 20:35 | 51.13035 | 13.76728 | 747 ft | 26 kts | 221° |
| 2026-04-30 20:35 | 51.12902 | 13.76545 | 750 ft | 26 kts | 221° |
| 2026-04-30 20:35 | 51.12774 | 13.76438 | 751 ft | 7 kts | 137° |
| 2026-04-30 20:36 | 51.12723 | 13.76527 | 753 ft | 12 kts | 131° |
| 2026-04-30 20:36 | 51.12672 | 13.76594 | 756 ft | 7 kts | 180° |
| 2026-04-30 20:36 | 51.12630 | 13.76546 | 755 ft | 0 kts | 220° |